Time;durP1;ratioP1;P1;durP2;ratioP2;P2;SDS_P1;SDS_P2;PMS_P1;PMS_P2;Temp;Humidity;BMP_temperature;BMP_pressure;BME280_temperature;BME280_humidity;BME280_pressure;Samples;Min_cycle;Max_cycle;Signal;HPM_P1;HPM_P2
2021/08/22 00:01:46;;;;;;;7.13;6.53;;;;;;;19.79;67.33;100761.66;5029276;28;20206;-69
2021/08/22 00:04:12;;;;;;;8.03;7.23;;;;;;;19.76;67.21;100760.97;5036380;28;20216;-70
2021/08/22 00:06:39;;;;;;;7.77;7.13;;;;;;;19.74;67.44;100754.00;5027748;28;20233;-70
2021/08/22 00:09:06;;;;;;;7.70;7.10;;;;;;;19.73;67.38;100758.56;5027446;28;20241;-69
2021/08/22 00:11:33;;;;;;;8.77;7.97;;;;;;;19.71;67.61;100760.56;5028452;28;20588;-69
2021/08/22 00:14:00;;;;;;;8.10;7.40;;;;;;;19.69;67.71;100753.63;5028030;28;20203;-69
2021/08/22 00:16:27;;;;;;;7.80;7.10;;;;;;;19.67;67.58;100751.09;5022898;28;20224;-69
2021/08/22 00:18:54;;;;;;;7.87;7.10;;;;;;;19.64;67.70;100753.25;5028394;28;20223;-69
2021/08/22 00:21:20;;;;;;;7.77;7.07;;;;;;;19.62;67.65;100752.53;5027947;28;20202;-70
2021/08/22 00:23:47;;;;;;;8.27;7.40;;;;;;;19.57;67.70;100747.59;5024362;28;20209;-69
2021/08/22 00:26:14;;;;;;;8.30;7.37;;;;;;;19.51;67.63;100740.09;5028870;28;20561;-69
2021/08/22 00:28:40;;;;;;;8.17;7.47;;;;;;;19.46;67.73;100738.81;5022961;28;20216;-69
2021/08/22 00:31:07;;;;;;;8.43;7.53;;;;;;;19.42;67.78;100735.56;5029018;28;20207;-69
2021/08/22 00:33:35;;;;;;;9.57;7.60;;;;;;;19.37;68.09;100737.88;5024872;28;20217;-70
2021/08/22 00:36:01;;;;;;;8.10;7.30;;;;;;;19.33;68.11;100742.75;5025644;28;20214;-70
2021/08/22 00:38:30;;;;;;;8.20;7.50;;;;;;;19.28;68.25;100745.03;5023968;28;20231;-70
2021/08/22 00:40:57;;;;;;;8.80;7.53;;;;;;;19.25;68.32;100736.38;5027659;28;20205;-69
2021/08/22 00:43:23;;;;;;;9.27;7.80;;;;;;;19.20;68.62;100726.03;5027659;28;20200;-70
2021/08/22 00:45:50;;;;;;;9.50;8.50;;;;;;;19.15;68.64;100716.72;5028636;28;20213;-70
2021/08/22 00:48:16;;;;;;;7.63;6.87;;;;;;;19.11;68.73;100705.34;5027606;28;20222;-69
2021/08/22 00:50:45;;;;;;;8.13;7.30;;;;;;;19.08;68.67;100708.34;5026662;28;20213;-70
2021/08/22 00:53:13;;;;;;;8.30;7.50;;;;;;;19.04;68.88;100707.78;5029703;28;20203;-70
2021/08/22 00:55:40;;;;;;;8.33;7.53;;;;;;;19.01;68.97;100707.22;5028576;28;20397;-70
2021/08/22 00:58:06;;;;;;;7.93;7.17;;;;;;;18.98;69.09;100705.72;5031267;28;20229;-70
2021/08/22 01:00:33;;;;;;;8.23;7.53;;;;;;;18.94;68.96;100703.47;5022171;28;20223;-70
2021/08/22 01:03:09;;;;;;;7.37;6.77;;;;;;;18.91;69.20;100699.19;5031672;28;20217;-70
2021/08/22 01:05:44;;;;;;;8.77;7.93;;;;;;;18.86;69.23;100689.84;5025777;28;20292;-70
2021/08/22 01:08:20;;;;;;;7.93;7.20;;;;;;;18.84;69.33;100697.22;5025846;28;20221;-70
2021/08/22 01:10:47;;;;;;;8.40;7.60;;;;;;;18.80;69.48;100696.72;5028102;28;20205;-70
2021/08/22 01:13:18;;;;;;;7.70;6.87;;;;;;;18.77;69.60;100705.09;5030254;28;20201;-70
2021/08/22 01:15:48;;;;;;;8.77;7.83;;;;;;;18.76;69.67;100702.53;5025673;28;20701;-70
2021/08/22 01:18:17;;;;;;;7.83;7.07;;;;;;;18.72;69.64;100694.75;5026022;28;20234;-71
2021/08/22 01:20:49;;;;;;;8.97;8.07;;;;;;;18.68;69.91;100698.72;5028306;28;20211;-70
2021/08/22 01:23:19;;;;;;;8.60;7.90;;;;;;;18.63;69.81;100692.91;5029592;28;20381;-69
2021/08/22 01:25:47;;;;;;;8.87;8.07;;;;;;;18.60;70.10;100684.28;5029082;28;20211;-69
2021/08/22 01:28:14;;;;;;;9.13;8.23;;;;;;;18.55;70.23;100682.00;5027948;28;20232;-69
2021/08/22 01:30:44;;;;;;;8.90;8.07;;;;;;;18.53;70.30;100681.28;5023653;28;20209;-69
2021/08/22 01:33:14;;;;;;;8.60;7.80;;;;;;;18.47;70.33;100672.94;5028830;28;20213;-69
2021/08/22 01:35:41;;;;;;;9.40;8.47;;;;;;;18.40;70.47;100678.09;5028995;28;20209;-70
2021/08/22 01:38:09;;;;;;;9.60;8.67;;;;;;;18.33;70.65;100683.19;5028235;28;20237;-69
2021/08/22 01:40:36;;;;;;;9.03;8.23;;;;;;;18.31;70.96;100678.94;5026484;28;20207;-70
2021/08/22 01:43:04;;;;;;;9.33;8.43;;;;;;;18.28;71.08;100687.31;5030345;28;20217;-69
2021/08/22 01:45:33;;;;;;;9.77;8.77;;;;;;;18.25;71.43;100691.19;5021062;28;20209;-69
2021/08/22 01:48:00;;;;;;;8.77;8.00;;;;;;;18.21;71.34;100684.38;5026558;28;20223;-70
2021/08/22 01:50:28;;;;;;;8.57;7.80;;;;;;;18.20;71.26;100687.22;5028224;28;20675;-70
2021/08/22 01:53:00;;;;;;;8.90;8.00;;;;;;;18.18;71.41;100675.72;5026979;28;20206;-70
2021/08/22 01:55:27;;;;;;;8.77;7.97;;;;;;;18.16;71.46;100680.41;5028097;28;20205;-70
2021/08/22 01:57:53;;;;;;;8.43;7.73;;;;;;;18.16;71.48;100683.09;5028597;28;20244;-69
2021/08/22 02:00:20;;;;;;;8.90;7.60;;;;;;;18.16;71.70;100692.03;5021364;28;20687;-69
2021/08/22 02:02:54;;;;;;;8.73;7.93;;;;;;;18.13;71.50;100676.16;5028441;28;20227;-69
2021/08/22 02:05:23;;;;;;;8.13;7.37;;;;;;;18.09;70.98;100673.91;5028519;28;20218;-69
2021/08/22 02:07:52;;;;;;;8.40;7.60;;;;;;;17.99;70.80;100674.75;5032950;28;20236;-69
2021/08/22 02:10:25;;;;;;;8.13;7.33;;;;;;;17.93;71.01;100677.16;5028991;28;20684;-69
2021/08/22 02:12:56;;;;;;;8.87;8.17;;;;;;;17.87;71.43;100673.22;5032003;28;20202;-70
2021/08/22 02:15:26;;;;;;;9.70;7.97;;;;;;;17.85;71.48;100668.97;5032908;28;20301;-70
2021/08/22 02:17:57;;;;;;;8.87;8.17;;;;;;;17.81;71.61;100662.16;5031530;28;20714;-70
2021/08/22 02:20:26;;;;;;;8.93;7.93;;;;;;;17.77;71.74;100661.59;5030678;28;20206;-70
2021/08/22 02:22:55;;;;;;;8.90;8.17;;;;;;;17.76;71.91;100648.25;5031217;28;20216;-70
2021/08/22 02:25:22;;;;;;;9.00;8.20;;;;;;;17.73;72.04;100654.81;5032039;28;20204;-70
2021/08/22 02:27:49;;;;;;;9.10;8.20;;;;;;;17.67;72.19;100648.16;5033294;23;20242;-78
2021/08/22 02:30:15;;;;;;;8.30;7.50;;;;;;;17.61;71.93;100651.38;5019147;28;20218;-81
2021/08/22 02:32:42;;;;;;;9.20;8.33;;;;;;;17.59;72.05;100655.19;5018999;28;20574;-81
2021/08/22 02:35:10;;;;;;;9.53;7.90;;;;;;;17.56;72.31;100648.22;5027838;28;20229;-81
2021/08/22 02:37:36;;;;;;;9.00;8.10;;;;;;;17.54;72.88;100639.47;5039070;28;20246;-81
2021/08/22 02:40:05;;;;;;;8.70;7.87;;;;;;;17.53;72.71;100628.84;5038858;28;20689;-82
2021/08/22 02:42:32;;;;;;;11.07;8.57;;;;;;;17.52;72.46;100646.00;5039093;28;20205;-82
2021/08/22 02:44:58;;;;;;;10.03;9.03;;;;;;;17.47;72.70;100641.03;5039115;28;20246;-81
2021/08/22 02:47:25;;;;;;;8.57;7.90;;;;;;;17.44;72.78;100633.22;5039578;28;20211;-80
2021/08/22 02:49:51;;;;;;;9.60;8.70;;;;;;;17.39;72.91;100623.84;5038708;28;20212;-81
2021/08/22 02:52:18;;;;;;;8.90;8.10;;;;;;;17.31;72.59;100621.91;5039329;28;20648;-80
2021/08/22 02:54:45;;;;;;;8.60;7.80;;;;;;;17.17;71.92;100622.31;5039115;28;20234;-82
2021/08/22 02:57:12;;;;;;;9.70;8.40;;;;;;;17.00;72.04;100619.31;5039394;28;20216;-82
2021/08/22 02:59:39;;;;;;;9.70;8.90;;;;;;;16.90;72.73;100620.28;5039302;28;20274;-81
2021/08/22 03:02:06;;;;;;;9.00;8.20;;;;;;;16.84;73.32;100613.59;5039208;28;20218;-81
2021/08/22 03:04:32;;;;;;;11.33;10.23;;;;;;;16.84;73.44;100613.59;5039466;28;20667;-82
2021/08/22 03:06:59;;;;;;;10.13;9.23;;;;;;;16.85;74.18;100609.06;5039555;28;20209;-81
2021/08/22 03:09:25;;;;;;;10.33;9.40;;;;;;;16.87;74.34;100599.03;5039941;28;20232;-81
2021/08/22 03:11:52;;;;;;;10.53;9.27;;;;;;;16.89;74.59;100597.91;5038931;28;20214;-82
2021/08/22 03:14:20;;;;;;;10.27;9.27;;;;;;;16.91;74.65;100595.94;5039448;28;20293;-82
2021/08/22 03:16:46;;;;;;;10.20;9.30;;;;;;;16.94;74.70;100601.03;5038505;28;20209;-81
2021/08/22 03:19:13;;;;;;;10.20;9.20;;;;;;;16.95;75.00;100586.59;5039008;28;20592;-83
2021/08/22 03:21:41;;;;;;;10.57;9.57;;;;;;;16.98;75.09;100590.84;5039590;28;20682;-81
2021/08/22 03:24:08;;;;;;;9.73;8.90;;;;;;;16.99;75.10;100584.47;5038210;28;20244;-81
2021/08/22 03:26:35;;;;;;;10.00;9.07;;;;;;;17.00;75.30;100580.81;5037639;28;20244;-79
2021/08/22 03:29:01;;;;;;;11.00;9.90;;;;;;;16.99;75.24;100577.25;5036727;28;20188;-79
2021/08/22 03:31:29;;;;;;;9.97;9.07;;;;;;;17.00;75.25;100578.09;5037149;28;20294;-80
2021/08/22 03:33:56;;;;;;;10.23;9.30;;;;;;;17.01;75.21;100571.75;5037655;28;20207;-80
2021/08/22 03:36:22;;;;;;;10.07;9.13;;;;;;;17.00;75.35;100568.19;5037933;28;20231;-81
2021/08/22 03:38:49;;;;;;;10.63;9.53;;;;;;;17.00;75.30;100564.66;5038706;28;20229;-80
2021/08/22 03:41:17;;;;;;;10.97;9.83;;;;;;;17.00;75.45;100568.19;5038826;28;20563;-81
2021/08/22 03:43:44;;;;;;;10.10;9.20;;;;;;;16.97;75.61;100565.78;5039062;28;20581;-81
2021/08/22 03:46:10;;;;;;;10.43;9.43;;;;;;;16.98;75.51;100572.88;5038697;28;20232;-81
2021/08/22 03:48:38;;;;;;;11.17;10.10;;;;;;;16.97;75.53;100567.63;5039955;28;20213;-81
2021/08/22 03:51:04;;;;;;;10.43;9.33;;;;;;;16.95;75.68;100570.44;5038817;28;20216;-81
2021/08/22 03:53:31;;;;;;;10.93;9.97;;;;;;;16.95;75.59;100569.59;5037843;28;20205;-81
2021/08/22 03:55:58;;;;;;;10.80;9.73;;;;;;;16.95;75.77;100574.97;5037537;28;20728;-81
2021/08/22 03:58:24;;;;;;;10.50;9.60;;;;;;;16.95;75.90;100572.28;5038196;28;20210;-81
2021/08/22 04:00:51;;;;;;;11.13;10.03;;;;;;;16.95;75.97;100572.28;5038155;28;20213;-80
2021/08/22 04:03:17;;;;;;;9.93;9.03;;;;;;;16.94;75.79;100566.06;5038381;28;20209;-80
2021/08/22 04:05:45;;;;;;;10.53;9.60;;;;;;;16.93;75.87;100580.50;5037578;28;20231;-82
2021/08/22 04:08:11;;;;;;;10.30;9.30;;;;;;;16.93;76.15;100588.56;5037778;28;20209;-82
2021/08/22 04:10:38;;;;;;;22.90;13.20;;;;;;;16.96;76.59;100601.75;5033764;28;20244;-84
2021/08/22 04:13:07;;;;;;;15.83;13.17;;;;;;;16.96;77.02;100663.63;5014363;28;20212;-84
2021/08/22 04:15:33;;;;;;;13.63;11.80;;;;;;;16.96;77.53;100685.16;5015762;28;20242;-83
2021/08/22 04:18:00;;;;;;;15.43;12.80;;;;;;;16.94;77.95;100683.56;5019435;28;20204;-82
2021/08/22 04:20:26;;;;;;;14.27;12.70;;;;;;;16.91;78.00;100665.03;5021638;28;20676;-84
2021/08/22 04:22:54;;;;;;;14.33;12.83;;;;;;;16.87;78.31;100674.34;5020773;28;20556;-84
2021/08/22 04:25:21;;;;;;;13.80;12.37;;;;;;;16.85;78.68;100669.09;5020170;28;20236;-84
2021/08/22 04:27:48;;;;;;;15.03;13.10;;;;;;;16.83;78.98;100670.25;5019134;28;20679;-84
2021/08/22 04:30:15;;;;;;;15.03;13.37;;;;;;;16.82;79.46;100679.31;5030083;28;20208;-84
2021/08/22 04:32:42;;;;;;;14.73;13.40;;;;;;;16.81;79.74;100682.97;5039596;28;20205;-84
2021/08/22 04:35:09;;;;;;;14.70;12.90;;;;;;;16.81;80.22;100688.34;5038976;28;20235;-84
2021/08/22 04:37:36;;;;;;;14.20;12.70;;;;;;;16.81;80.29;100685.66;5040827;28;20207;-84
2021/08/22 04:40:05;;;;;;;14.23;12.73;;;;;;;16.81;80.46;100685.66;5040713;28;20691;-84
2021/08/22 04:42:32;;;;;;;15.00;13.50;;;;;;;16.82;81.05;100693.59;5041418;28;20296;-84
2021/08/22 04:44:59;;;;;;;14.87;13.33;;;;;;;16.84;81.03;100693.47;5041070;28;20230;-84
2021/08/22 04:47:26;;;;;;;16.13;14.63;;;;;;;16.85;81.18;100693.31;5039392;28;20273;-83
2021/08/22 04:49:53;;;;;;;14.77;13.30;;;;;;;16.87;81.31;100704.78;5019989;28;20208;-83
2021/08/22 04:52:19;;;;;;;14.97;13.40;;;;;;;16.88;81.55;100706.50;5014914;28;20225;-83
2021/08/22 04:54:46;;;;;;;15.13;13.70;;;;;;;16.89;81.64;100704.66;5023381;28;20244;-83
2021/08/22 04:57:14;;;;;;;16.70;14.40;;;;;;;16.88;81.75;100689.50;5022678;28;20207;-84
2021/08/22 04:59:41;;;;;;;16.60;13.60;;;;;;;16.88;81.91;100687.66;5019784;28;20236;-84
2021/08/22 05:02:07;;;;;;;15.33;13.73;;;;;;;16.91;81.93;100675.78;5024267;28;20215;-84
2021/08/22 05:04:34;;;;;;;16.70;14.80;;;;;;;16.91;82.32;100684.69;5028530;28;20274;-83
2021/08/22 05:07:00;;;;;;;15.97;14.27;;;;;;;16.95;82.44;100666.44;5019105;28;20573;-83
2021/08/22 05:09:27;;;;;;;15.30;13.80;;;;;;;16.95;82.75;100656.53;5017662;28;20209;-85
2021/08/22 05:11:54;;;;;;;14.10;12.80;;;;;;;16.97;82.70;100648.34;5021155;28;20189;-83
2021/08/22 05:14:22;;;;;;;15.33;13.83;;;;;;;16.98;82.73;100656.28;5015523;28;20591;-84
2021/08/22 05:16:49;;;;;;;15.80;14.27;;;;;;;16.98;82.89;100650.03;5025831;28;20223;-83
2021/08/22 05:19:15;;;;;;;16.83;13.47;;;;;;;16.98;82.67;100650.03;5033868;28;20233;-85
2021/08/22 05:21:42;;;;;;;14.07;12.63;;;;;;;16.96;82.80;100649.31;5035081;28;20250;-83
2021/08/22 05:24:09;;;;;;;15.67;14.17;;;;;;;16.94;82.83;100648.59;5032419;28;20689;-84
2021/08/22 05:26:35;;;;;;;14.67;13.10;;;;;;;16.92;82.84;100656.81;5017621;28;20220;-84
2021/08/22 05:29:02;;;;;;;15.77;12.90;;;;;;;16.92;83.08;100664.03;5020414;28;20206;-84
2021/08/22 05:31:30;;;;;;;15.20;13.03;;;;;;;16.91;83.04;100660.50;5012476;28;20229;-85
2021/08/22 05:33:56;;;;;;;14.53;13.03;;;;;;;16.92;83.28;100664.88;5013897;28;20224;-84
2021/08/22 05:36:23;;;;;;;14.43;13.10;;;;;;;16.92;83.61;100672.94;5011687;28;20626;-84
2021/08/22 05:38:52;;;;;;;14.67;13.23;;;;;;;16.94;83.67;100686.28;5015194;28;20735;-84
2021/08/22 05:41:19;;;;;;;15.47;13.87;;;;;;;16.96;83.88;100695.06;5018344;28;20222;-84
2021/08/22 05:43:45;;;;;;;13.83;12.33;;;;;;;16.96;83.80;100695.06;5018770;28;20208;-83
2021/08/22 05:46:12;;;;;;;14.30;12.97;;;;;;;16.97;84.07;100707.53;5018180;28;20229;-83
2021/08/22 05:48:40;;;;;;;14.00;12.60;;;;;;;16.98;84.61;100709.22;5000148;28;20218;-84
2021/08/22 05:51:07;;;;;;;13.57;12.13;;;;;;;16.97;84.52;100712.91;4998749;28;20631;-84
2021/08/22 05:53:33;;;;;;;13.17;11.87;;;;;;;16.97;84.55;100710.22;4998140;28;20213;-85
2021/08/22 05:56:00;;;;;;;14.00;12.50;;;;;;;16.94;84.59;100689.81;4997761;28;20229;-84
2021/08/22 05:58:27;;;;;;;14.33;12.80;;;;;;;16.93;84.83;100696.19;5015310;28;20728;-84
2021/08/22 06:00:53;;;;;;;15.30;13.43;;;;;;;16.92;84.97;100701.69;5017600;28;20233;-85
2021/08/22 06:03:20;;;;;;;15.33;13.07;;;;;;;16.95;85.08;100704.13;5039235;28;20204;-84
2021/08/22 06:05:50;;;;;;;14.27;12.87;;;;;;;16.95;85.26;100706.81;5036934;28;20226;-84
2021/08/22 06:08:16;;;;;;;13.53;12.23;;;;;;;16.96;85.14;100708.50;5022829;28;20219;-84
2021/08/22 06:10:43;;;;;;;12.93;11.63;;;;;;;16.96;85.09;100711.19;5023015;28;20672;-83
2021/08/22 06:13:09;;;;;;;13.30;11.63;;;;;;;16.96;85.27;100716.59;5022421;28;20221;-83
2021/08/22 06:15:36;;;;;;;13.07;11.87;;;;;;;16.97;85.54;100712.91;5021522;28;20320;-84
2021/08/22 06:18:03;;;;;;;14.63;12.73;;;;;;;16.98;85.78;100711.91;5011039;28;20668;-84
2021/08/22 06:20:31;;;;;;;12.90;11.40;;;;;;;17.02;85.64;100718.72;5001947;28;20233;-84
2021/08/22 06:22:59;;;;;;;11.93;10.83;;;;;;;17.03;85.84;100712.34;5017988;28;20266;-84
2021/08/22 06:25:26;;;;;;;13.43;11.60;;;;;;;17.04;85.90;100711.34;5018742;28;20309;-84
2021/08/22 06:27:52;;;;;;;15.93;12.73;;;;;;;17.07;85.89;100708.38;5026102;28;20280;-84
2021/08/22 06:30:19;;;;;;;12.63;11.43;;;;;;;17.09;85.80;100713.63;5024490;28;20212;-82
2021/08/22 06:32:46;;;;;;;13.30;12.10;;;;;;;17.10;85.93;100705.44;5023013;28;20186;-84
2021/08/22 06:35:13;;;;;;;12.73;11.43;;;;;;;17.10;85.94;100710.81;5019797;28;20228;-83
2021/08/22 06:37:40;;;;;;;15.00;11.33;;;;;;;17.11;86.00;100715.22;5028187;28;20212;-83
2021/08/22 06:40:10;;;;;;;14.47;12.07;;;;;;;17.13;86.32;100725.84;5022901;28;20235;-83
2021/08/22 06:42:37;;;;;;;12.37;11.23;;;;;;;17.16;86.53;100720.19;5018283;28;20256;-82
2021/08/22 06:45:04;;;;;;;13.63;11.23;;;;;;;17.16;86.53;100721.03;5021098;28;20229;-84
2021/08/22 06:47:30;;;;;;;12.40;11.20;;;;;;;17.18;86.65;100724.44;5018441;28;20705;-83
2021/08/22 06:49:57;;;;;;;12.90;10.63;;;;;;;17.19;86.87;100718.06;5017320;28;20206;-84
2021/08/22 06:52:24;;;;;;;10.50;9.60;;;;;;;17.20;86.92;100725.13;5017770;28;20577;-84
2021/08/22 06:54:50;;;;;;;10.53;9.63;;;;;;;17.20;86.75;100730.50;5017771;28;20250;-83
2021/08/22 06:57:18;;;;;;;9.80;8.80;;;;;;;17.19;86.52;100723.47;5017919;28;20557;-83
2021/08/22 06:59:45;;;;;;;9.57;8.23;;;;;;;17.17;86.62;100720.06;5017346;28;20225;-83
2021/08/22 07:02:11;;;;;;;10.23;9.23;;;;;;;17.17;86.55;100720.06;5019188;28;20222;-82
2021/08/22 07:04:38;;;;;;;10.17;9.20;;;;;;;17.16;86.65;100726.41;5022259;28;20270;-83
2021/08/22 07:07:05;;;;;;;12.83;9.87;;;;;;;17.19;86.54;100733.38;5036176;28;20228;-83
2021/08/22 07:09:32;;;;;;;10.83;9.73;;;;;;;17.19;86.86;100734.22;5041687;28;20208;-82
2021/08/22 07:11:59;;;;;;;9.67;8.67;;;;;;;17.20;86.82;100729.66;5041494;28;20303;-82
2021/08/22 07:14:27;;;;;;;10.40;9.30;;;;;;;17.21;86.74;100736.75;5040061;28;20244;-83
2021/08/22 07:16:53;;;;;;;12.03;10.33;;;;;;;17.22;86.81;100725.00;5040739;28;20229;-84
2021/08/22 07:19:20;;;;;;;11.00;9.93;;;;;;;17.23;86.88;100727.56;5040826;28;20212;-83
2021/08/22 07:21:49;;;;;;;10.43;9.43;;;;;;;17.26;86.82;100731.81;5040299;28;20270;-83
2021/08/22 07:24:16;;;;;;;10.17;9.20;;;;;;;17.25;86.78;100727.41;5039941;28;20293;-84
2021/08/22 07:26:43;;;;;;;9.87;8.90;;;;;;;17.25;86.97;100722.03;5039997;28;20223;-83
2021/08/22 07:29:09;;;;;;;10.90;9.27;;;;;;;17.28;87.10;100721.75;5039782;28;20550;-84
2021/08/22 07:31:37;;;;;;;10.20;9.20;;;;;;;17.29;87.14;100718.94;5039785;28;20288;-83
2021/08/22 07:34:04;;;;;;;9.90;8.97;;;;;;;17.32;87.39;100713.28;5040433;28;20617;-83
2021/08/22 07:36:31;;;;;;;9.70;8.80;;;;;;;17.34;87.18;100716.69;5026625;28;20231;-83
2021/08/22 07:38:57;;;;;;;9.70;8.83;;;;;;;17.38;87.26;100716.41;5022534;28;20215;-82
2021/08/22 07:41:24;;;;;;;9.40;8.50;;;;;;;17.40;87.30;100719.78;5014739;28;20313;-83
2021/08/22 07:43:56;;;;;;;10.40;9.30;;;;;;;17.43;87.18;100732.97;5031830;28;20698;-82
2021/08/22 07:46:22;;;;;;;10.23;8.77;;;;;;;17.41;87.15;100721.50;5041514;28;20751;-84
2021/08/22 07:48:51;;;;;;;9.40;8.60;;;;;;;17.44;87.33;100737.38;5040693;28;20234;-82
2021/08/22 07:51:23;;;;;;;10.00;9.00;;;;;;;17.46;87.33;100733.56;5041144;28;20209;-82
2021/08/22 07:53:50;;;;;;;9.77;8.70;;;;;;;17.50;87.49;100735.00;5040557;28;20207;-84
2021/08/22 07:56:17;;;;;;;9.60;8.70;;;;;;;17.54;87.48;100732.88;5038941;28;20253;-83
2021/08/22 07:58:44;;;;;;;9.97;8.97;;;;;;;17.56;87.56;100741.63;5039034;28;20215;-83
2021/08/22 08:01:10;;;;;;;9.70;8.83;;;;;;;17.60;87.76;100745.75;5012608;28;20257;-85
2021/08/22 08:03:38;;;;;;;8.87;8.07;;;;;;;17.63;87.66;100750.88;5015915;28;20238;-83
2021/08/22 08:06:06;;;;;;;9.50;8.60;;;;;;;17.64;87.52;100749.91;5017982;28;20333;-83
2021/08/22 08:08:35;;;;;;;9.47;8.47;;;;;;;17.68;87.67;100751.34;5019160;28;20295;-85
2021/08/22 08:11:03;;;;;;;9.30;8.37;;;;;;;17.73;87.77;100745.53;5034773;28;20261;-81
2021/08/22 08:13:31;;;;;;;8.57;7.50;;;;;;;17.77;87.76;100752.31;5013002;28;20743;-84
2021/08/22 08:15:57;;;;;;;7.93;7.20;;;;;;;17.81;87.85;100753.75;5014219;28;20852;-83
2021/08/22 08:18:24;;;;;;;7.13;6.43;;;;;;;17.85;88.02;100753.34;5013775;28;20200;-82
2021/08/22 08:20:51;;;;;;;6.73;5.70;;;;;;;17.89;87.77;100759.31;5022932;28;20249;-83
2021/08/22 08:23:19;;;;;;;6.07;5.47;;;;;;;17.93;87.81;100761.56;5016618;28;20206;-83
2021/08/22 08:25:45;;;;;;;6.40;5.80;;;;;;;17.94;87.77;100763.25;5013254;28;20585;-83
2021/08/22 08:28:12;;;;;;;6.33;5.80;;;;;;;17.97;87.86;100764.81;5012843;28;20219;-84
2021/08/22 08:30:40;;;;;;;6.93;5.60;;;;;;;17.98;87.76;100764.69;5019045;28;20204;-86
2021/08/22 08:33:08;;;;;;;5.63;5.00;;;;;;;17.99;87.65;100766.38;5007829;28;20211;-83
2021/08/22 08:35:36;;;;;;;6.13;5.53;;;;;;;18.01;87.66;100767.09;5013984;28;20230;-85
2021/08/22 08:38:03;;;;;;;6.13;5.53;;;;;;;18.05;87.73;100764.97;5029133;28;20210;-83
2021/08/22 08:40:31;;;;;;;6.20;5.70;;;;;;;18.10;87.89;100764.53;5034928;28;20232;-84
2021/08/22 08:42:58;;;;;;;6.63;5.33;;;;;;;18.14;88.14;100769.50;5011986;28;20210;-83
2021/08/22 08:45:32;;;;;;;6.70;6.10;;;;;;;18.20;88.15;100778.88;4997717;28;20315;-85
2021/08/22 08:48:02;;;;;;;7.00;6.30;;;;;;;18.21;87.90;100770.63;5010675;28;20200;-85
2021/08/22 08:50:32;;;;;;;7.73;6.67;;;;;;;18.26;87.78;100767.53;4997381;28;20208;-85
2021/08/22 08:53:03;;;;;;;9.93;8.93;;;;;;;18.31;88.09;100776.00;5002415;28;20682;-85
2021/08/22 08:55:35;;;;;;;8.80;7.90;;;;;;;18.36;87.98;100776.44;4995793;28;20241;-83
2021/08/22 08:58:02;;;;;;;9.60;8.70;;;;;;;18.38;88.01;100778.00;4997809;28;20272;-84
2021/08/22 09:00:33;;;;;;;8.33;7.57;;;;;;;18.44;87.99;100779.28;5014774;28;20313;-86
2021/08/22 09:03:02;;;;;;;7.73;6.87;;;;;;;18.50;88.20;100777.81;5000419;28;20677;-85
2021/08/22 09:05:42;;;;;;;7.13;6.43;;;;;;;18.56;88.15;100775.41;4997842;28;20225;-83
2021/08/22 09:08:50;;;;;;;8.10;7.00;;;;;;;18.61;87.96;100785.81;5002882;28;20212;-81
2021/08/22 09:11:50;;;;;;;7.33;6.63;;;;;;;18.67;88.06;100777.97;5014444;28;20209;-83
2021/08/22 09:14:54;;;;;;;8.03;6.90;;;;;;;18.68;87.81;100779.66;4988381;28;20224;-84
2021/08/22 09:17:54;;;;;;;7.50;6.80;;;;;;;18.73;87.58;100780.09;5019626;28;20269;-83
2021/08/22 09:20:58;;;;;;;8.40;7.47;;;;;;;18.78;87.56;100786.88;5003360;28;20598;-82
2021/08/22 09:24:14;;;;;;;7.77;7.07;;;;;;;18.82;87.27;100775.63;5013564;28;20224;-84
2021/08/22 09:27:26;;;;;;;8.70;7.90;;;;;;;18.85;87.14;100779.91;4991374;28;20255;-82
2021/08/22 09:30:32;;;;;;;9.47;7.83;;;;;;;18.90;87.14;100783.84;5010906;28;20650;-82
2021/08/22 09:33:44;;;;;;;9.30;8.47;;;;;;;18.94;87.00;100781.72;5011652;28;20208;-83
2021/08/22 09:36:48;;;;;;;10.20;9.00;;;;;;;18.99;87.04;100785.66;5015347;28;20228;-83
2021/08/22 09:39:57;;;;;;;9.40;8.50;;;;;;;19.08;86.93;100774.00;5006936;28;20212;-83
2021/08/22 09:43:12;;;;;;;9.80;8.90;;;;;;;19.27;87.49;100770.34;4996522;28;20648;-82
2021/08/22 09:46:29;;;;;;;10.00;9.03;;;;;;;19.54;87.52;100769.50;5020937;28;20232;-83
2021/08/22 09:49:47;;;;;;;10.30;9.30;;;;;;;19.80;87.52;100769.63;4987619;28;20219;-80
2021/08/22 09:52:46;;;;;;;8.93;8.13;;;;;;;19.95;86.28;100757.25;4997851;28;20233;-82
2021/08/22 09:55:46;;;;;;;9.57;8.73;;;;;;;20.07;85.92;100763.25;4953756;28;20286;-82
2021/08/22 09:58:54;;;;;;;9.37;8.47;;;;;;;20.20;84.84;100769.16;5013032;28;20215;-81
2021/08/22 10:01:46;;;;;;;9.60;8.73;;;;;;;20.29;83.49;100770.03;5017649;28;20247;-82
2021/08/22 10:05:07;;;;;;;9.47;8.67;;;;;;;20.40;82.81;100769.84;5016849;28;20196;-82
2021/08/22 10:07:59;;;;;;;9.43;8.53;;;;;;;20.53;82.33;100767.56;4997752;28;20213;-81
2021/08/22 10:10:27;;;;;;;9.00;8.10;;;;;;;20.66;81.28;100765.28;5036873;28;20207;-82
2021/08/22 10:12:53;;;;;;;9.27;8.37;;;;;;;20.77;80.48;100772.31;5037166;28;20217;-82
2021/08/22 10:15:20;;;;;;;9.23;8.43;;;;;;;20.87;79.79;100759.50;5020399;28;20233;-82
2021/08/22 10:17:50;;;;;;;9.47;8.60;;;;;;;21.00;79.49;100759.03;5031618;28;20208;-83
2021/08/22 10:20:17;;;;;;;8.90;8.10;;;;;;;21.07;78.43;100763.66;5034700;28;20213;-83
2021/08/22 10:22:44;;;;;;;8.65;7.82;;;;;;;21.13;77.33;100764.88;5017510;28;20207;-83
2021/08/22 10:25:12;;;;;;;8.95;8.18;;;;;;;21.19;77.08;100764.22;5021574;28;20290;-80
2021/08/22 10:27:58;;;;;;;8.63;7.93;;;;;;;21.28;76.19;100760.56;5000934;28;20721;-84
2021/08/22 10:30:27;;;;;;;9.23;8.43;;;;;;;21.28;74.87;100762.44;5001893;28;20205;-84
2021/08/22 10:33:17;;;;;;;9.52;8.65;;;;;;;21.30;74.88;100763.97;5001160;28;20203;-81
2021/08/22 10:35:44;;;;;;;9.50;8.57;;;;;;;21.37;74.63;100765.00;5000945;28;20237;-82
2021/08/22 10:38:30;;;;;;;8.73;7.93;;;;;;;21.46;74.32;100763.16;5000588;28;20246;-82
2021/08/22 10:40:58;;;;;;;9.65;8.80;;;;;;;21.58;74.31;100763.69;5026233;28;20284;-82
2021/08/22 10:43:45;;;;;;;9.00;8.20;;;;;;;21.69;73.42;100758.81;5040603;28;20237;-84
2021/08/22 10:46:16;;;;;;;9.25;8.45;;;;;;;21.74;72.52;100761.03;5040812;28;20252;-82
2021/08/22 10:48:54;;;;;;;9.73;8.93;;;;;;;21.75;72.36;100760.00;5034413;28;20213;-80
2021/08/22 10:51:24;;;;;;;9.30;8.40;;;;;;;21.82;72.60;100758.34;5020595;28;20238;-80
2021/08/22 10:54:10;;;;;;;9.32;8.50;;;;;;;21.91;71.82;100757.31;5019788;28;20549;-82
2021/08/22 10:56:40;;;;;;;9.80;8.90;;;;;;;21.96;71.13;100749.53;5021256;28;20314;-81
2021/08/22 10:59:09;;;;;;;8.57;7.88;;;;;;;22.02;70.66;100751.63;5020995;28;20270;-81
2021/08/22 11:01:37;;;;;;;9.20;8.40;;;;;;;22.08;70.51;100745.50;5019087;28;20565;-81
2021/08/22 11:04:07;;;;;;;8.93;8.13;;;;;;;22.14;69.99;100752.97;5018666;28;20225;-81
2021/08/22 11:06:35;;;;;;;9.77;8.98;;;;;;;22.19;69.36;100749.75;5019489;28;20219;-81
2021/08/22 11:09:01;;;;;;;9.20;8.40;;;;;;;22.24;68.70;100751.94;5019482;28;20207;-81
2021/08/22 11:11:28;;;;;;;13.77;8.80;;;;;;;22.28;68.82;100753.28;5018941;28;20213;-81
2021/08/22 11:14:00;;;;;;;8.68;7.97;;;;;;;22.34;68.53;100742.63;5020197;28;20305;-81
2021/08/22 11:16:40;;;;;;;9.27;8.48;;;;;;;22.42;68.37;100744.47;5019421;28;20229;-83
2021/08/22 11:19:08;;;;;;;9.50;8.70;;;;;;;22.48;67.87;100738.34;5019844;28;20559;-80
2021/08/22 11:21:35;;;;;;;9.02;8.23;;;;;;;22.52;67.48;100732.41;5019838;28;20233;-81
2021/08/22 11:24:01;;;;;;;9.88;8.88;;;;;;;22.56;66.99;100740.22;5020671;28;20202;-82
2021/08/22 11:26:29;;;;;;;10.20;9.25;;;;;;;22.61;67.46;100737.81;5019160;28;20288;-80
2021/08/22 11:28:57;;;;;;;10.32;9.43;;;;;;;22.67;66.98;100732.56;5019881;28;20656;-82
2021/08/22 11:31:27;;;;;;;9.98;9.07;;;;;;;22.76;66.82;100739.63;5019465;28;20213;-82
2021/08/22 11:33:54;;;;;;;9.93;9.00;;;;;;;22.90;66.91;100737.28;5019623;28;20208;-81
2021/08/22 11:36:27;;;;;;;9.50;8.70;;;;;;;22.98;66.40;100735.38;5019075;28;20231;-82